createdAt,value
2022-08-16T03:49:45.806Z,947.91
2022-08-16T03:50:59.696Z,947.96
2022-08-16T03:51:45.788Z,947.97
2022-08-16T03:52:45.866Z,947.96
2022-08-16T03:53:45.770Z,948.02
2022-08-16T03:54:53.099Z,947.98
2022-08-16T03:55:45.940Z,947.95
2022-08-16T03:56:57.490Z,947.9
2022-08-16T03:57:52.092Z,947.94
2022-08-16T03:58:45.729Z,947.91
2022-08-16T03:59:45.723Z,947.94
2022-08-16T04:00:45.765Z,947.95
2022-08-16T04:01:45.730Z,947.95
2022-08-16T04:02:45.701Z,947.96
2022-08-16T04:03:45.693Z,947.97
2022-08-16T04:04:45.685Z,948.01
2022-08-16T04:05:46.693Z,948.01
2022-08-16T04:06:45.671Z,948.05
2022-08-16T04:07:45.666Z,948.05
2022-08-16T04:08:45.659Z,948.07
2022-08-16T04:09:45.653Z,948.11
2022-08-16T04:10:45.643Z,948.08
2022-08-16T04:11:45.640Z,948.12
2022-08-16T04:12:52.752Z,948.09
2022-08-16T04:14:33.644Z,948.14
2022-08-16T04:15:33.336Z,948.14
2022-08-16T04:16:33.711Z,948.14
2022-08-16T04:17:33.325Z,948.16
2022-08-16T04:18:33.318Z,948.16
2022-08-16T04:19:33.372Z,948.2
2022-08-16T04:20:34.122Z,948.21
2022-08-16T04:21:33.306Z,948.2
2022-08-16T04:22:33.293Z,948.22
2022-08-16T04:23:33.285Z,948.25
2022-08-16T04:24:33.280Z,948.24
2022-08-16T04:25:33.272Z,948.23
2022-08-16T04:26:33.268Z,948.23
2022-08-16T04:27:33.263Z,948.28
2022-08-16T04:29:18.615Z,948.25
2022-08-16T04:30:03.827Z,948.26
2022-08-16T04:31:03.443Z,948.23
2022-08-16T04:32:03.438Z,948.19
2022-08-16T04:33:04.461Z,948.22
2022-08-16T04:34:03.423Z,948.22
2022-08-16T04:35:07.737Z,948.17
2022-08-16T04:36:03.410Z,948.19
2022-08-16T04:37:03.409Z,948.22
2022-08-16T04:38:10.812Z,948.2
2022-08-16T04:39:03.395Z,948.18
2022-08-16T04:40:05.435Z,948.2
2022-08-16T04:41:03.382Z,948.18
2022-08-16T04:42:10.864Z,948.22
2022-08-16T04:43:03.371Z,948.19
2022-08-16T04:44:32.789Z,948.17
2022-08-16T04:45:07.256Z,948.21
2022-08-16T04:46:19.729Z,948.19
2022-08-16T04:47:36.296Z,948.25
2022-08-16T04:48:36.287Z,948.27
2022-08-16T04:49:38.660Z,948.29
2022-08-16T04:50:37.869Z,948.31
2022-08-16T04:51:36.332Z,948.32
2022-08-16T04:52:36.299Z,948.35
2022-08-16T04:53:36.257Z,948.35
2022-08-16T04:54:36.251Z,948.4
2022-08-16T04:55:38.074Z,948.41
2022-08-16T04:56:36.240Z,948.45
2022-08-16T04:57:36.231Z,948.43
2022-08-16T04:58:38.542Z,948.4
2022-08-16T04:59:36.221Z,948.4
2022-08-16T05:00:36.228Z,948.36
2022-08-16T05:01:47.857Z,948.39
2022-08-16T05:02:56.056Z,948.38
2022-08-16T05:04:00.061Z,948.39
2022-08-16T05:04:55.296Z,948.39
2022-08-16T05:05:59.664Z,948.39
2022-08-16T05:06:55.284Z,948.4
2022-08-16T05:07:58.041Z,948.4
2022-08-16T05:08:56.360Z,948.43
2022-08-16T05:09:55.265Z,948.43
2022-08-16T05:10:58.884Z,948.43
2022-08-16T05:11:57.289Z,948.47
2022-08-16T05:12:55.249Z,948.44
2022-08-16T05:13:55.242Z,948.47
2022-08-16T05:15:04.098Z,948.42
2022-08-16T05:16:04.089Z,948.42
2022-08-16T05:17:04.083Z,948.43
2022-08-16T05:18:04.076Z,948.41
2022-08-16T05:19:04.071Z,948.42
2022-08-16T05:20:35.779Z,948.41
2022-08-16T05:21:16.835Z,948.43
2022-08-16T05:22:17.422Z,948.42
2022-08-16T05:23:16.824Z,948.46
2022-08-16T05:24:22.094Z,948.44
2022-08-16T05:25:16.815Z,948.46
2022-08-16T05:26:19.741Z,948.46
2022-08-16T05:27:16.803Z,948.47
2022-08-16T05:28:16.800Z,948.48
2022-08-16T05:29:16.792Z,948.49
2022-08-16T05:30:37.234Z,948.5
2022-08-16T05:31:36.785Z,948.51
2022-08-16T05:32:43.313Z,948.48
2022-08-16T05:33:36.774Z,948.51
2022-08-16T05:34:36.767Z,948.48
2022-08-16T05:35:36.761Z,948.49
2022-08-16T05:36:37.291Z,948.48
2022-08-16T05:37:39.586Z,948.5
2022-08-16T05:38:39.162Z,948.48
2022-08-16T05:39:37.672Z,948.49
2022-08-16T05:40:36.737Z,948.46
2022-08-16T05:41:37.137Z,948.45
2022-08-16T05:42:36.727Z,948.46
2022-08-16T05:43:43.019Z,948.42
2022-08-16T05:44:36.714Z,948.47
2022-08-16T05:45:36.709Z,948.44
2022-08-16T05:46:36.705Z,948.46
2022-08-16T05:47:43.099Z,948.47
2022-08-16T05:48:36.696Z,948.49
2022-08-16T05:49:36.990Z,948.44
2022-08-16T05:50:36.681Z,948.46
2022-08-16T05:51:38.404Z,948.49
2022-08-16T05:52:36.672Z,948.49
2022-08-16T05:53:36.666Z,948.53
2022-08-16T05:54:36.661Z,948.5
2022-08-16T05:55:40.728Z,948.51
2022-08-16T05:56:36.693Z,948.55
2022-08-16T05:57:36.645Z,948.58
2022-08-16T05:58:36.641Z,948.61
2022-08-16T05:59:36.835Z,948.6
2022-08-16T06:00:36.632Z,948.63
2022-08-16T06:01:37.993Z,948.62
2022-08-16T06:02:36.622Z,948.61
2022-08-16T06:03:36.614Z,948.64
2022-08-16T06:04:37.639Z,948.68
2022-08-16T06:05:36.727Z,948.69
2022-08-16T06:06:36.601Z,948.67
2022-08-16T06:07:36.593Z,948.72
2022-08-16T06:08:42.409Z,948.72
2022-08-16T06:09:37.257Z,948.71
2022-08-16T06:10:36.581Z,948.69
2022-08-16T06:11:36.576Z,948.69
2022-08-16T06:12:36.570Z,948.7
2022-08-16T06:13:36.564Z,948.67
2022-08-16T06:14:36.562Z,948.65
2022-08-16T06:15:36.578Z,948.65
2022-08-16T06:16:36.549Z,948.67
2022-08-16T06:17:41.356Z,948.66
2022-08-16T06:18:36.541Z,948.72
2022-08-16T06:19:36.535Z,948.7
2022-08-16T06:20:36.920Z,948.75
2022-08-16T06:21:36.775Z,948.77
2022-08-16T06:22:37.706Z,948.78
2022-08-16T06:23:36.515Z,948.74
2022-08-16T06:24:53.156Z,948.76
2022-08-16T06:25:39.298Z,948.77
2022-08-16T06:26:37.098Z,948.78
2022-08-16T06:27:39.704Z,948.8
2022-08-16T06:28:37.131Z,948.75
2022-08-16T06:29:36.488Z,948.85
2022-08-16T06:30:36.483Z,948.8
2022-08-16T06:31:46.556Z,948.85
2022-08-16T06:32:46.320Z,948.86
2022-08-16T06:33:41.081Z,948.84
2022-08-16T06:34:56.373Z,948.85
2022-08-16T06:35:40.510Z,948.81
2022-08-16T06:36:36.453Z,948.83
2022-08-16T06:37:37.223Z,948.8
2022-08-16T06:38:36.443Z,948.8
2022-08-16T06:39:46.557Z,948.81
2022-08-16T06:40:36.436Z,948.8
2022-08-16T06:41:39.357Z,948.78
2022-08-16T06:42:39.410Z,948.83
2022-08-16T06:43:36.423Z,948.83
2022-08-16T06:44:36.416Z,948.87
2022-08-16T06:45:36.413Z,948.88
2022-08-16T06:46:36.802Z,948.88
2022-08-16T06:47:52.769Z,948.88
2022-08-16T06:48:36.397Z,948.89
2022-08-16T06:49:36.393Z,948.89
2022-08-16T06:50:36.392Z,948.91
2022-08-16T06:51:45.151Z,948.94
2022-08-16T06:53:08.318Z,948.98
2022-08-16T06:54:07.901Z,948.96
2022-08-16T06:55:07.896Z,948.98
2022-08-16T06:56:14.092Z,949.02
2022-08-16T06:57:11.724Z,949.08
2022-08-16T06:58:08.089Z,949.07
2022-08-16T06:59:08.937Z,949.07
2022-08-16T07:00:09.367Z,949.12
2022-08-16T07:01:09.720Z,949.14
2022-08-16T07:02:07.925Z,949.12
2022-08-16T07:03:15.663Z,949.11
2022-08-16T07:04:10.327Z,949.13
2022-08-16T07:05:10.618Z,949.2
2022-08-16T07:06:07.871Z,949.17
2022-08-16T07:07:09.654Z,949.16
2022-08-16T07:08:07.869Z,949.2
2022-08-16T07:09:09.593Z,949.25
2022-08-16T07:10:08.598Z,949.26
2022-08-16T07:11:07.868Z,949.24
2022-08-16T07:12:07.869Z,949.3
2022-08-16T07:13:12.896Z,949.28
2022-08-16T07:14:31.421Z,949.25
2022-08-16T07:15:31.428Z,949.27
2022-08-16T07:16:31.424Z,949.27
2022-08-16T07:17:31.424Z,949.23
2022-08-16T07:18:31.426Z,949.17
2022-08-16T07:19:33.438Z,949.18
2022-08-16T07:21:02.493Z,949.1
2022-08-16T07:22:02.205Z,949.14
2022-08-16T07:23:02.469Z,949.15
2022-08-16T07:24:05.752Z,949.2
2022-08-16T07:25:02.212Z,949.21
2022-08-16T07:26:02.220Z,949.34
2022-08-16T07:27:02.219Z,949.38
2022-08-16T07:28:02.225Z,949.35
2022-08-16T07:29:02.228Z,949.38
2022-08-16T07:30:02.277Z,949.37
2022-08-16T07:31:02.239Z,949.36
2022-08-16T07:32:02.243Z,949.39
2022-08-16T07:33:02.246Z,949.43
2022-08-16T07:34:02.253Z,949.45
2022-08-16T07:35:02.256Z,949.44
2022-08-16T07:36:02.262Z,949.54
2022-08-16T07:37:02.266Z,949.45
2022-08-16T07:38:02.270Z,949.2
2022-08-16T07:39:02.274Z,949.12
2022-08-16T07:40:02.352Z,949.1
2022-08-16T07:41:10.001Z,949.12
2022-08-16T07:42:02.288Z,949.12
2022-08-16T07:43:02.293Z,949.14
2022-08-16T07:44:02.300Z,949.19
2022-08-16T07:45:02.306Z,949.17
2022-08-16T07:46:02.308Z,949.19
2022-08-16T07:47:02.313Z,949.2
2022-08-16T07:48:11.385Z,949.21
2022-08-16T07:49:03.142Z,949.18
2022-08-16T07:50:05.339Z,949.19
2022-08-16T07:51:12.795Z,949.19
2022-08-16T07:52:18.855Z,949.18
2022-08-16T07:53:12.798Z,949.2
2022-08-16T07:54:17.203Z,949.19
2022-08-16T07:55:12.809Z,949.19
2022-08-16T07:56:12.812Z,949.18
2022-08-16T07:57:12.814Z,949.18
2022-08-16T07:58:18.031Z,949.21
2022-08-16T07:59:12.824Z,949.19
2022-08-16T08:00:18.359Z,949.18
2022-08-16T08:01:13.060Z,949.19
2022-08-16T08:02:12.834Z,949.24
2022-08-16T08:03:12.834Z,949.2
2022-08-16T08:04:12.998Z,949.26
2022-08-16T08:05:12.841Z,949.22
2022-08-16T08:06:12.846Z,949.23
2022-08-16T08:07:12.847Z,949.25
2022-08-16T08:08:50.093Z,949.3
2022-08-16T08:09:12.851Z,949.29
2022-08-16T08:10:16.171Z,949.29
2022-08-16T08:11:12.858Z,949.3
2022-08-16T08:12:31.736Z,949.27
2022-08-16T08:13:12.864Z,949.3
2022-08-16T08:14:29.582Z,949.24
2022-08-16T08:15:12.867Z,949.23
2022-08-16T08:16:18.749Z,949.25
2022-08-16T08:17:12.872Z,949.25
2022-08-16T08:18:20.979Z,949.25
2022-08-16T08:19:12.913Z,949.26
2022-08-16T08:20:12.874Z,949.23
2022-08-16T08:21:12.877Z,949.26
2022-08-16T08:22:19.053Z,949.24
2022-08-16T08:23:12.884Z,949.29
2022-08-16T08:24:12.882Z,949.32
2022-08-16T08:25:13.003Z,949.32
2022-08-16T08:26:16.997Z,949.34
2022-08-16T08:27:12.892Z,949.36
2022-08-16T08:28:12.887Z,949.3
2022-08-16T08:29:12.890Z,949.31
2022-08-16T08:31:00.556Z,949.35
2022-08-16T08:31:49.484Z,949.34
2022-08-16T08:33:00.608Z,949.36
2022-08-16T08:33:58.245Z,949.35
2022-08-16T08:35:00.430Z,949.38
2022-08-16T08:36:00.669Z,949.39
2022-08-16T08:36:58.246Z,949.33
2022-08-16T08:37:58.250Z,949.36
2022-08-16T08:38:58.250Z,949.34
2022-08-16T08:39:58.277Z,949.37
2022-08-16T08:40:58.250Z,949.37
2022-08-16T08:41:58.254Z,949.37
2022-08-16T08:43:00.979Z,949.4
2022-08-16T08:43:58.306Z,949.42
2022-08-16T08:44:58.255Z,949.45
2022-08-16T08:45:58.257Z,949.44
2022-08-16T08:46:59.895Z,949.44
2022-08-16T08:47:58.525Z,949.44
2022-08-16T08:48:59.283Z,949.49
2022-08-16T08:49:58.260Z,949.46
2022-08-16T08:50:58.261Z,949.53
2022-08-16T08:51:58.262Z,949.54
2022-08-16T08:52:58.261Z,949.56
2022-08-16T08:53:58.633Z,949.58
2022-08-16T08:54:58.263Z,949.52
2022-08-16T08:55:58.976Z,949.59
2022-08-16T08:56:58.264Z,949.56
2022-08-16T08:57:58.267Z,949.55
2022-08-16T08:59:01.058Z,949.53
2022-08-16T08:59:58.270Z,949.53
2022-08-16T09:01:01.364Z,949.51
2022-08-16T09:01:58.717Z,949.49
2022-08-16T09:02:58.542Z,949.49
2022-08-16T09:03:58.366Z,949.49
2022-08-16T09:04:58.275Z,949.52
2022-08-16T09:05:58.275Z,949.51
2022-08-16T09:06:58.414Z,949.53
2022-08-16T09:08:01.143Z,949.51
2022-08-16T09:08:58.282Z,949.47
2022-08-16T09:10:00.782Z,949.52
2022-08-16T09:10:58.745Z,949.52
2022-08-16T09:12:04.341Z,949.5
2022-08-16T09:12:58.288Z,949.5
2022-08-16T09:13:58.288Z,949.5
2022-08-16T09:14:58.291Z,949.5
2022-08-16T09:15:58.290Z,949.47
2022-08-16T09:17:11.531Z,949.47
2022-08-16T09:18:02.035Z,949.47
2022-08-16T09:19:04.002Z,949.51
2022-08-16T09:20:04.749Z,949.45
2022-08-16T09:21:02.027Z,949.47
2022-08-16T09:22:01.820Z,949.48
2022-08-16T09:23:01.823Z,949.5
2022-08-16T09:24:01.821Z,949.49
2022-08-16T09:25:12.740Z,949.51
2022-08-16T09:26:18.095Z,949.47
2022-08-16T09:27:12.242Z,949.45
2022-08-16T09:28:12.242Z,949.52
2022-08-16T09:30:43.023Z,949.5
2022-08-16T09:31:34.415Z,949.48
2022-08-16T09:32:34.419Z,949.5
2022-08-16T09:33:37.120Z,949.49
2022-08-16T09:34:34.423Z,949.48
2022-08-16T09:35:34.422Z,949.49
2022-08-16T09:36:34.476Z,949.48
2022-08-16T09:37:36.612Z,949.49
2022-08-16T09:38:34.426Z,949.51
2022-08-16T09:39:41.061Z,949.51
2022-08-16T09:40:43.082Z,949.46
2022-08-16T09:41:34.429Z,949.48
2022-08-16T09:42:56.200Z,949.44
2022-08-16T09:43:58.934Z,949.45
2022-08-16T09:45:23.699Z,949.41
2022-08-16T09:46:44.330Z,949.45
2022-08-16T09:47:23.720Z,949.44
2022-08-16T09:48:37.037Z,949.42
2022-08-16T09:49:23.701Z,949.42
2022-08-16T09:50:23.702Z,949.39
2022-08-16T09:51:23.706Z,949.42
2022-08-16T09:52:23.704Z,949.4
2022-08-16T09:53:23.706Z,949.36
2022-08-16T09:54:23.708Z,949.44
2022-08-16T09:55:25.311Z,949.46
2022-08-16T09:56:23.711Z,949.42
2022-08-16T09:57:23.721Z,949.43
2022-08-16T09:58:39.129Z,949.4
2022-08-16T09:59:23.715Z,949.41
2022-08-16T10:00:42.889Z,949.43
2022-08-16T10:01:23.717Z,949.37
2022-08-16T10:02:26.692Z,949.36
2022-08-16T10:03:23.723Z,949.36
2022-08-16T10:04:28.922Z,949.4
2022-08-16T10:05:23.724Z,949.4
2022-08-16T10:06:23.727Z,949.41
2022-08-16T10:07:23.725Z,949.4
2022-08-16T10:08:27.329Z,949.37
2022-08-16T10:09:25.940Z,949.39
2022-08-16T10:10:30.663Z,949.44
2022-08-16T10:11:25.945Z,949.41
2022-08-16T10:12:25.947Z,949.4
2022-08-16T10:13:25.947Z,949.38
2022-08-16T10:14:32.857Z,949.4
2022-08-16T10:15:25.952Z,949.34
2022-08-16T10:16:25.955Z,949.36
2022-08-16T10:17:25.997Z,949.34
2022-08-16T10:18:56.920Z,949.3
2022-08-16T10:19:25.959Z,949.32
2022-08-16T10:20:25.965Z,949.32
2022-08-16T10:21:25.963Z,949.2
2022-08-16T10:22:25.968Z,949.31
2022-08-16T10:23:25.966Z,949.27
2022-08-16T10:24:28.243Z,949.28
2022-08-16T10:27:00.410Z,949.27
2022-08-16T10:28:41.837Z,949.28
2022-08-16T10:29:59.681Z,949.27
2022-08-16T10:30:41.845Z,949.27
2022-08-16T10:31:43.358Z,949.33
2022-08-16T10:32:41.851Z,949.35
2022-08-16T10:33:41.849Z,949.37
2022-08-16T10:34:41.853Z,949.33
2022-08-16T10:35:46.485Z,949.33
2022-08-16T10:36:41.857Z,949.34
2022-08-16T10:37:41.858Z,949.37
2022-08-16T10:38:42.055Z,949.29
2022-08-16T10:39:42.479Z,949.3
2022-08-16T10:40:45.430Z,949.32
2022-08-16T10:41:41.863Z,949.29
2022-08-16T10:42:41.871Z,949.28
2022-08-16T10:43:42.026Z,949.3
2022-08-16T10:44:42.362Z,949.29
2022-08-16T10:45:42.196Z,949.24
2022-08-16T10:46:45.531Z,949.3
2022-08-16T10:47:45.533Z,949.31
2022-08-16T10:48:47.085Z,949.32
2022-08-16T10:49:45.540Z,949.29
2022-08-16T10:50:45.540Z,949.29
2022-08-16T10:52:01.041Z,949.27
2022-08-16T10:52:45.557Z,949.27
2022-08-16T10:53:45.549Z,949.22
2022-08-16T10:55:40.493Z,949.22
2022-08-16T10:56:57.646Z,949.26
2022-08-16T10:57:57.637Z,949.25
2022-08-16T10:59:29.464Z,949.24
2022-08-16T11:00:03.969Z,949.24
2022-08-16T11:03:06.557Z,949.23
2022-08-16T11:05:04.469Z,949.27
2022-08-16T11:05:18.254Z,949.24
2022-08-16T11:06:18.210Z,949.25
2022-08-16T11:08:18.204Z,949.27
2022-08-16T11:09:28.805Z,949.22
2022-08-16T11:11:26.027Z,949.22
2022-08-16T11:12:26.033Z,949.2
2022-08-16T11:14:26.035Z,949.2
2022-08-16T11:15:26.227Z,949.17
2022-08-16T11:16:26.700Z,949.16
2022-08-16T11:17:26.039Z,949.17
2022-08-16T11:19:03.375Z,949.19
2022-08-16T11:20:54.234Z,949.22
2022-08-16T11:22:57.076Z,949.2
2022-08-16T11:23:57.986Z,949.16
2022-08-16T11:25:15.305Z,949.15
2022-08-16T11:26:30.359Z,949.2
2022-08-16T11:27:32.861Z,949.17
2022-08-16T11:29:12.457Z,949.2
2022-08-16T11:29:30.256Z,949.28
2022-08-16T11:30:38.586Z,949.25
2022-08-16T11:31:32.010Z,949.28
2022-08-16T11:32:32.013Z,949.3
2022-08-16T11:34:44.757Z,949.2
2022-08-16T11:36:27.619Z,949.15
2022-08-16T11:37:27.384Z,949.14
2022-08-16T11:39:04.447Z,949.2
2022-08-16T11:40:04.110Z,949.22
2022-08-16T11:41:04.089Z,949.26
2022-08-16T11:42:04.061Z,949.24
2022-08-16T11:43:04.642Z,949.24
2022-08-16T11:44:04.066Z,949.22
2022-08-16T11:45:04.070Z,949.22
2022-08-16T11:46:34.151Z,949.23
2022-08-16T11:47:04.073Z,949.23
2022-08-16T11:48:04.083Z,949.3
2022-08-16T11:49:04.078Z,949.24
2022-08-16T11:50:04.086Z,949.26
2022-08-16T11:51:04.756Z,949.28
2022-08-16T11:52:04.759Z,949.28
2022-08-16T11:53:04.761Z,949.32
2022-08-16T11:54:05.016Z,949.28
2022-08-16T11:55:04.765Z,949.27
2022-08-16T11:56:04.771Z,949.26
2022-08-16T11:57:08.841Z,949.25
2022-08-16T11:58:04.776Z,949.26
2022-08-16T11:59:04.780Z,949.24
2022-08-16T12:00:04.781Z,949.23
2022-08-16T12:01:04.783Z,949.23
2022-08-16T12:02:30.835Z,949.19
2022-08-16T12:03:04.791Z,949.25
2022-08-16T12:04:04.829Z,949.18
2022-08-16T12:05:04.795Z,949.15
2022-08-16T12:06:04.797Z,949.14
2022-08-16T12:07:04.800Z,949.19
2022-08-16T12:08:05.336Z,949.2
2022-08-16T12:09:04.806Z,949.21
2022-08-16T12:10:04.809Z,949.17
2022-08-16T12:11:04.810Z,949.14
2022-08-16T12:12:04.815Z,949.13
2022-08-16T12:13:04.816Z,949.2
2022-08-16T12:14:05.049Z,949.19
2022-08-16T12:15:04.822Z,949.18
2022-08-16T12:16:04.835Z,949.2
2022-08-16T12:17:04.825Z,949.18
2022-08-16T12:18:04.830Z,949.16
2022-08-16T12:19:04.876Z,949.19
2022-08-16T12:20:05.055Z,949.23
2022-08-16T12:21:04.836Z,949.21
2022-08-16T12:22:05.670Z,949.22
2022-08-16T12:23:04.842Z,949.19
2022-08-16T12:24:04.846Z,949.22
2022-08-16T12:25:04.845Z,949.24
2022-08-16T12:26:06.331Z,949.17
2022-08-16T12:27:04.852Z,949.28
2022-08-16T12:28:04.853Z,949.23
2022-08-16T12:29:04.857Z,949.22
2022-08-16T12:30:04.863Z,949.22
2022-08-16T12:31:04.862Z,949.18
2022-08-16T12:32:26.968Z,949.19
2022-08-16T12:33:04.866Z,949.2
2022-08-16T12:34:04.871Z,949.2
2022-08-16T12:35:04.870Z,949.22
2022-08-16T12:36:04.875Z,949.28
2022-08-16T12:37:09.026Z,949.25
2022-08-16T12:38:08.760Z,949.26
2022-08-16T12:39:04.883Z,949.23
2022-08-16T12:40:04.950Z,949.19
2022-08-16T12:41:04.890Z,949.16
2022-08-16T12:42:04.891Z,949.2
2022-08-16T12:43:04.898Z,949.17
2022-08-16T12:44:04.908Z,949.19
2022-08-16T12:45:04.904Z,949.14
2022-08-16T12:46:04.903Z,949.17
2022-08-16T12:47:04.921Z,949.17
2022-08-16T12:48:22.459Z,949.14
2022-08-16T12:49:04.914Z,949.12
2022-08-16T12:50:04.916Z,949.15
2022-08-16T12:51:04.919Z,949.15
2022-08-16T12:52:04.921Z,949.17
2022-08-16T12:53:04.926Z,949.18
2022-08-16T12:54:04.952Z,949.15
2022-08-16T12:55:04.931Z,949.18
2022-08-16T12:56:04.933Z,949.17
2022-08-16T12:57:04.936Z,949.19
2022-08-16T12:58:04.938Z,949.19
2022-08-16T12:59:04.943Z,949.15
2022-08-16T13:00:04.944Z,949.19
2022-08-16T13:01:05.046Z,949.17
2022-08-16T13:02:05.958Z,949.18
2022-08-16T13:03:07.859Z,949.17
2022-08-16T13:04:19.873Z,949.16
2022-08-16T13:05:06.969Z,949.21
2022-08-16T13:06:04.963Z,949.19
2022-08-16T13:07:06.091Z,949.17
2022-08-16T13:08:04.968Z,949.2
2022-08-16T13:09:04.970Z,949.18
2022-08-16T13:10:20.927Z,949.19
2022-08-16T13:11:04.976Z,949.17
2022-08-16T13:12:04.978Z,949.18
2022-08-16T13:13:04.982Z,949.24
2022-08-16T13:14:05.247Z,949.24
2022-08-16T13:15:04.988Z,949.2
2022-08-16T13:16:10.916Z,949.22
2022-08-16T13:17:06.472Z,949.25
2022-08-16T13:18:11.232Z,949.24
2022-08-16T13:19:04.999Z,949.22
2022-08-16T13:20:07.989Z,949.25
2022-08-16T13:21:05.004Z,949.26
2022-08-16T13:22:05.006Z,949.19
2022-08-16T13:23:05.010Z,949.18
2022-08-16T13:24:05.011Z,949.21
2022-08-16T13:25:05.017Z,949.2
2022-08-16T13:26:05.054Z,949.25
2022-08-16T13:27:05.025Z,949.22
2022-08-16T13:28:05.025Z,949.25
2022-08-16T13:29:05.026Z,949.26
2022-08-16T13:30:11.300Z,949.27
2022-08-16T13:31:05.033Z,949.3
2022-08-16T13:32:05.036Z,949.27
2022-08-16T13:33:11.409Z,949.26
2022-08-16T13:34:09.191Z,949.28
2022-08-16T13:35:05.043Z,949.25
2022-08-16T13:36:05.049Z,949.29
2022-08-16T13:37:05.051Z,949.28
2022-08-16T13:38:05.053Z,949.27
2022-08-16T13:39:05.057Z,949.29
2022-08-16T13:40:05.152Z,949.29
2022-08-16T13:41:05.060Z,949.31
2022-08-16T13:42:05.066Z,949.27
2022-08-16T13:43:05.064Z,949.3
2022-08-16T13:44:09.321Z,949.29
2022-08-16T13:45:05.069Z,949.27
2022-08-16T13:46:05.135Z,949.25
2022-08-16T13:47:05.073Z,949.25
2022-08-16T13:48:05.082Z,949.21
2022-08-16T13:49:05.080Z,949.24
2022-08-16T13:50:05.084Z,949.26
2022-08-16T13:51:05.085Z,949.27
2022-08-16T13:52:05.088Z,949.23
2022-08-16T13:53:05.098Z,949.28
2022-08-16T13:54:05.144Z,949.25
2022-08-16T13:55:05.095Z,949.32
2022-08-16T13:56:05.097Z,949.28
2022-08-16T13:57:05.098Z,949.28
2022-08-16T13:58:35.949Z,949.28
2022-08-16T13:59:06.527Z,949.24
2022-08-16T14:00:06.532Z,949.25
2022-08-16T14:01:09.624Z,949.28
2022-08-16T14:02:06.557Z,949.23
2022-08-16T14:03:06.576Z,949.24
2022-08-16T14:04:06.542Z,949.23
2022-08-16T14:05:06.547Z,949.26
2022-08-16T14:06:06.549Z,949.25
2022-08-16T14:07:06.550Z,949.29
2022-08-16T14:08:06.552Z,949.22
2022-08-16T14:09:07.121Z,949.26
2022-08-16T14:10:06.557Z,949.27
2022-08-16T14:11:06.558Z,949.28
2022-08-16T14:12:09.995Z,949.26
2022-08-16T14:13:06.562Z,949.3
2022-08-16T14:14:06.567Z,949.28
2022-08-16T14:15:06.569Z,949.27
2022-08-16T14:16:12.387Z,949.29
2022-08-16T14:17:09.670Z,949.27
2022-08-16T14:18:16.196Z,949.27
2022-08-16T14:19:06.579Z,949.29
2022-08-16T14:20:06.611Z,949.27
2022-08-16T14:21:06.588Z,949.26
2022-08-16T14:22:13.810Z,949.25
2022-08-16T14:23:06.694Z,949.25
2022-08-16T14:24:07.767Z,949.24
2022-08-16T14:25:07.144Z,949.28
2022-08-16T14:26:06.601Z,949.26
2022-08-16T14:27:06.606Z,949.29
2022-08-16T14:28:06.610Z,949.31
2022-08-16T14:29:06.677Z,949.32
2022-08-16T14:30:06.697Z,949.26
2022-08-16T14:31:06.619Z,949.25
2022-08-16T14:32:06.620Z,949.24
2022-08-16T14:33:06.625Z,949.26
2022-08-16T14:34:06.628Z,949.27
2022-08-16T14:35:07.323Z,949.28
2022-08-16T14:36:06.641Z,949.31
2022-08-16T14:37:06.639Z,949.25
2022-08-16T14:38:06.643Z,949.23
2022-08-16T14:39:06.643Z,949.24
2022-08-16T14:40:06.830Z,949.28
2022-08-16T14:41:06.886Z,949.23
2022-08-16T14:42:06.652Z,949.21
2022-08-16T14:43:07.141Z,949.26
2022-08-16T14:44:06.658Z,949.24
2022-08-16T14:45:06.660Z,949.18
2022-08-16T14:46:07.502Z,949.22
2022-08-16T14:47:06.667Z,949.18
2022-08-16T14:48:06.669Z,949.21
2022-08-16T14:49:09.171Z,949.2
2022-08-16T14:50:07.601Z,949.2
2022-08-16T14:51:07.497Z,949.2
2022-08-16T14:52:07.496Z,949.23
2022-08-16T14:53:07.502Z,949.21
2022-08-16T14:54:11.061Z,949.2
2022-08-16T14:55:07.507Z,949.21
2022-08-16T14:56:07.507Z,949.18
2022-08-16T14:57:07.512Z,949.17
2022-08-16T14:58:07.514Z,949.22
2022-08-16T14:59:08.476Z,949.22
2022-08-16T15:00:07.576Z,949.2
2022-08-16T15:01:09.931Z,949.17
2022-08-16T15:02:07.590Z,949.19
2022-08-16T15:03:09.542Z,949.16
2022-08-16T15:04:07.529Z,949.15
2022-08-16T15:05:07.538Z,949.14
2022-08-16T15:06:07.535Z,949.13
2022-08-16T15:07:09.357Z,949.06
2022-08-16T15:08:07.615Z,949.04
2022-08-16T15:09:07.545Z,949.06
2022-08-16T15:10:07.546Z,949.05
2022-08-16T15:11:07.964Z,949.06
2022-08-16T15:12:07.554Z,949.06
2022-08-16T15:13:09.467Z,949.05
2022-08-16T15:14:07.561Z,949.06
2022-08-16T15:15:12.170Z,949.06
2022-08-16T15:16:07.565Z,949.09
2022-08-16T15:17:07.568Z,949.08
2022-08-16T15:18:07.574Z,949.06
2022-08-16T15:19:07.572Z,949.07
2022-08-16T15:20:08.545Z,949.1
2022-08-16T15:21:08.599Z,949.15
2022-08-16T15:22:07.582Z,949.16
2022-08-16T15:23:07.584Z,949.14
2022-08-16T15:24:07.588Z,949.15
2022-08-16T15:25:07.606Z,949.16
2022-08-16T15:26:08.076Z,949.13
2022-08-16T15:27:07.593Z,949.15
2022-08-16T15:28:07.597Z,949.15
2022-08-16T15:29:08.229Z,949.19
2022-08-16T15:30:44.741Z,949.14
2022-08-16T15:31:15.043Z,949.16
2022-08-16T15:32:26.357Z,949.21
2022-08-16T15:33:15.052Z,949.18
2022-08-16T15:34:19.162Z,949.17
2022-08-16T15:35:15.053Z,949.18
2022-08-16T15:36:15.057Z,949.23
2022-08-16T15:37:15.068Z,949.22
2022-08-16T15:38:31.888Z,949.21
2022-08-16T15:39:57.609Z,949.23
2022-08-16T15:40:59.244Z,949.23
2022-08-16T15:41:58.215Z,949.25
2022-08-16T15:42:57.598Z,949.25
2022-08-16T15:44:03.649Z,949.26
2022-08-16T15:44:58.554Z,949.23
2022-08-16T15:45:57.564Z,949.26
2022-08-16T15:46:58.920Z,949.22
2022-08-16T15:47:57.569Z,949.24
2022-08-16T15:48:57.577Z,949.27
2022-08-16T15:49:57.574Z,949.21
2022-08-16T15:50:57.575Z,949.18
2022-08-16T15:51:57.576Z,949.18
2022-08-16T15:52:57.801Z,949.24
2022-08-16T15:54:16.469Z,949.27
2022-08-16T15:55:07.592Z,949.22
2022-08-16T15:56:01.272Z,949.17
2022-08-16T15:57:11.743Z,949.25
2022-08-16T15:58:01.276Z,949.28
2022-08-16T15:59:01.280Z,949.27
2022-08-16T16:00:04.446Z,949.24
2022-08-16T16:01:01.387Z,949.23
2022-08-16T16:02:01.285Z,949.24
2022-08-16T16:03:01.286Z,949.24
2022-08-16T16:04:01.288Z,949.22
2022-08-16T16:05:01.296Z,949.26
2022-08-16T16:06:01.293Z,949.22
2022-08-16T16:07:01.292Z,949.17
2022-08-16T16:08:11.342Z,949.18
2022-08-16T16:09:01.299Z,949.19
2022-08-16T16:10:01.359Z,949.21
2022-08-16T16:11:01.300Z,949.2
2022-08-16T16:12:01.308Z,949.2
2022-08-16T16:13:01.306Z,949.19
2022-08-16T16:14:01.310Z,949.17
2022-08-16T16:15:01.310Z,949.15
2022-08-16T16:16:01.315Z,949.18
2022-08-16T16:17:01.682Z,949.17
2022-08-16T16:18:05.132Z,949.18
2022-08-16T16:19:01.319Z,949.17
2022-08-16T16:20:01.323Z,949.19
2022-08-16T16:21:01.323Z,949.13
2022-08-16T16:22:01.329Z,949.17
2022-08-16T16:23:01.327Z,949.16
2022-08-16T16:24:21.091Z,949.16
2022-08-16T16:25:01.337Z,949.15
2022-08-16T16:26:03.520Z,949.14
2022-08-16T16:27:01.335Z,949.15
2022-08-16T16:28:01.446Z,949.19
2022-08-16T16:29:18.720Z,949.2
2022-08-16T16:30:33.733Z,949.16
2022-08-16T16:31:18.725Z,949.18
2022-08-16T16:32:18.729Z,949.21
2022-08-16T16:33:20.787Z,949.21
2022-08-16T16:34:18.734Z,949.21
2022-08-16T16:35:18.735Z,949.19
2022-08-16T16:36:18.736Z,949.17
2022-08-16T16:37:18.739Z,949.24
2022-08-16T16:38:18.741Z,949.26
2022-08-16T16:39:18.742Z,949.27
2022-08-16T16:40:29.074Z,949.25
2022-08-16T16:41:18.746Z,949.24
2022-08-16T16:42:25.551Z,949.26
2022-08-16T16:43:18.749Z,949.24
2022-08-16T16:44:22.668Z,949.28